createdAt,value
2019-04-10T00:01:28.054Z,71.63
2019-04-10T00:03:56.823Z,71.35
2019-04-10T00:06:25.822Z,71.41
2019-04-10T00:08:54.787Z,71.31
2019-04-10T00:11:24.818Z,71.55
2019-04-10T00:13:53.560Z,71.69
2019-04-10T00:16:22.471Z,71.87
2019-04-10T00:18:51.181Z,72.08
2019-04-10T00:21:20.889Z,71.96
2019-04-10T00:23:49.947Z,72.08
2019-04-10T00:26:18.552Z,72.38
2019-04-10T00:28:47.731Z,72.45
2019-04-10T00:31:16.524Z,72.30
2019-04-10T00:33:45.170Z,72.33
2019-04-10T00:36:14.150Z,72.57
2019-04-10T00:38:42.726Z,72.65
2019-04-10T00:41:12.111Z,72.90
2019-04-10T00:43:41.523Z,72.89
2019-04-10T00:46:10.447Z,72.94
2019-04-10T00:48:39.752Z,73.23
2019-04-10T00:51:08.889Z,73.99
2019-04-10T00:53:37.902Z,73.76
2019-04-10T00:56:06.363Z,73.83
2019-04-10T00:58:35.317Z,74.14
2019-04-10T01:01:05.514Z,74.27
2019-04-10T01:03:43.669Z,74.58
2019-04-10T01:06:14.418Z,74.71
2019-04-10T01:08:43.023Z,74.65
2019-04-10T01:11:11.757Z,74.52
2019-04-10T01:13:41.092Z,74.81
2019-04-10T01:16:09.970Z,75.00
2019-04-10T01:18:39.502Z,74.90
2019-04-10T01:21:08.435Z,75.20
2019-04-10T01:23:38.002Z,75.36
2019-04-10T01:26:07.241Z,75.50
2019-04-10T01:28:36.673Z,75.64
2019-04-10T01:31:06.652Z,75.73
2019-04-10T01:33:36.725Z,75.42
2019-04-10T01:36:05.606Z,75.86
2019-04-10T01:38:34.222Z,75.60
2019-04-10T01:41:03.615Z,75.92
2019-04-10T01:43:32.984Z,76.00
2019-04-10T01:46:02.101Z,75.88
2019-04-10T01:48:34.436Z,75.78
2019-04-10T01:51:03.260Z,75.60
2019-04-10T01:53:31.734Z,75.59
2019-04-10T01:56:00.301Z,75.27
2019-04-10T01:58:29.436Z,75.29
2019-04-10T02:01:03.872Z,75.12
2019-04-10T02:03:32.722Z,75.24
2019-04-10T02:06:01.392Z,75.15
2019-04-10T02:08:29.935Z,75.06
2019-04-10T02:10:58.692Z,75.30
2019-04-10T02:13:27.651Z,74.92
2019-04-10T02:15:56.710Z,75.00
2019-04-10T02:18:25.555Z,75.09
2019-04-10T02:20:54.108Z,74.95
2019-04-10T02:23:22.664Z,74.85
2019-04-10T02:25:51.183Z,75.02
2019-04-10T02:28:20.708Z,74.82
2019-04-10T02:30:50.206Z,74.99
2019-04-10T02:33:18.869Z,74.91
2019-04-10T02:35:47.870Z,75.02
2019-04-10T02:38:37.347Z,75.14
2019-04-10T02:40:47.627Z,75.11
2019-04-10T02:43:16.454Z,75.12
2019-04-10T02:45:44.951Z,75.12
2019-04-10T02:48:14.913Z,75.39
2019-04-10T02:50:44.892Z,75.25
2019-04-10T02:53:15.325Z,75.26
2019-04-10T02:55:43.956Z,75.35
2019-04-10T02:58:14.081Z,75.38
2019-04-10T03:00:44.186Z,75.23
2019-04-10T03:03:13.817Z,75.23
2019-04-10T03:05:42.857Z,74.94
2019-04-10T03:08:13.258Z,75.23
2019-04-10T03:10:49.615Z,75.11
2019-04-10T03:13:13.728Z,75.09
2019-04-10T03:15:43.478Z,75.13
2019-04-10T03:18:12.698Z,75.21
2019-04-10T03:20:42.610Z,75.21
2019-04-10T03:23:11.644Z,75.20
2019-04-10T03:25:41.416Z,75.29
2019-04-10T03:28:11.157Z,75.19
2019-04-10T03:30:41.561Z,75.62
2019-04-10T03:33:18.385Z,75.55
2019-04-10T03:35:45.103Z,75.62
2019-04-10T03:38:14.778Z,75.39
2019-04-10T03:40:43.736Z,75.20
2019-04-10T03:43:12.458Z,75.15
2019-04-10T03:45:41.158Z,75.29
2019-04-10T03:48:09.748Z,75.29
2019-04-10T03:50:38.286Z,75.36
2019-04-10T03:53:07.581Z,75.42
2019-04-10T03:55:36.856Z,75.50
2019-04-10T03:58:05.487Z,75.52
2019-04-10T04:00:34.297Z,75.72
2019-04-10T04:03:02.941Z,75.62
2019-04-10T04:05:31.505Z,75.82
2019-04-10T04:08:01.206Z,75.48
2019-04-10T04:10:30.766Z,75.25
2019-04-10T04:13:00.194Z,75.07
2019-04-10T04:15:30.225Z,75.21
2019-04-10T04:18:00.253Z,75.06
2019-04-10T04:20:29.103Z,75.33
2019-04-10T04:22:57.725Z,75.06
2019-04-10T04:25:26.191Z,75.08
2019-04-10T04:27:54.760Z,75.34
2019-04-10T04:30:23.369Z,75.27
2019-04-10T04:32:51.951Z,75.10
2019-04-10T04:35:20.491Z,75.18
2019-04-10T04:37:49.044Z,75.12
2019-04-10T04:40:17.582Z,75.07
2019-04-10T04:42:47.126Z,74.88
2019-04-10T04:45:15.961Z,74.72
2019-04-10T04:47:44.572Z,74.97
2019-04-10T04:50:13.186Z,74.85
2019-04-10T04:52:41.681Z,74.71
2019-04-10T04:55:10.586Z,74.74
2019-04-10T04:57:40.667Z,74.73
2019-04-10T05:00:10.687Z,74.51
2019-04-10T05:02:39.269Z,74.75
2019-04-10T05:05:08.772Z,74.47
2019-04-10T05:07:37.655Z,74.93
2019-04-10T05:10:09.004Z,74.66
2019-04-10T05:12:38.076Z,74.33
2019-04-10T05:15:09.423Z,74.43
2019-04-10T05:17:37.807Z,74.24
2019-04-10T05:20:07.413Z,74.29
2019-04-10T05:22:36.001Z,74.16
2019-04-10T05:25:06.842Z,73.78
2019-04-10T05:27:35.519Z,74.30
2019-04-10T05:30:06.275Z,74.02
2019-04-10T05:32:35.395Z,74.12
2019-04-10T05:35:07.404Z,73.84
2019-04-10T05:37:35.895Z,74.24
2019-04-10T05:40:07.682Z,74.23
2019-04-10T05:42:37.423Z,73.52
2019-04-10T05:45:07.406Z,73.94
2019-04-10T05:47:36.607Z,73.63
2019-04-10T05:50:06.518Z,73.70
2019-04-10T05:52:35.365Z,72.99
2019-04-10T05:55:04.636Z,72.95
2019-04-10T05:57:33.178Z,72.97
2019-04-10T06:00:02.734Z,72.66
2019-04-10T06:02:32.129Z,72.58
2019-04-10T06:05:02.357Z,72.21
2019-04-10T06:07:31.056Z,72.39
2019-04-10T06:10:04.828Z,71.94
2019-04-10T06:12:30.897Z,72.19
2019-04-10T06:14:59.517Z,72.21
2019-04-10T06:17:28.044Z,71.99
2019-04-10T06:19:56.742Z,71.74
2019-04-10T06:22:26.430Z,71.56
2019-04-10T06:24:55.125Z,71.41
2019-04-10T06:27:24.221Z,71.33
2019-04-10T06:29:53.196Z,71.15
2019-04-10T06:32:22.204Z,71.22
2019-04-10T06:34:50.878Z,70.87
2019-04-10T06:37:19.525Z,70.79
2019-04-10T06:39:49.017Z,71.15
2019-04-10T06:42:17.841Z,71.26
2019-04-10T06:44:46.454Z,71.59
2019-04-10T06:47:15.080Z,71.30
2019-04-10T06:49:43.957Z,71.47
2019-04-10T06:52:12.496Z,71.03
2019-04-10T06:54:41.038Z,71.08
2019-04-10T06:57:10.450Z,71.24
2019-04-10T06:59:41.965Z,71.30
2019-04-10T07:02:20.315Z,71.22
2019-04-10T07:04:46.024Z,71.32
2019-04-10T07:07:13.723Z,71.15
2019-04-10T07:09:40.620Z,71.35
2019-04-10T07:12:10.079Z,70.80
2019-04-10T07:14:40.950Z,70.97
2019-04-10T07:17:10.571Z,71.15
2019-04-10T07:19:41.478Z,71.02
2019-04-10T07:22:12.487Z,70.65
2019-04-10T07:24:42.519Z,70.66
2019-04-10T07:27:10.410Z,70.39
2019-04-10T07:29:39.022Z,70.10
2019-04-10T07:32:09.639Z,69.92
2019-04-10T07:34:38.016Z,69.53
2019-04-10T07:37:07.955Z,69.50
2019-04-10T07:39:37.488Z,69.22
2019-04-10T07:42:06.295Z,69.30
2019-04-10T07:44:34.820Z,69.51
2019-04-10T07:47:03.395Z,69.53
2019-04-10T07:49:32.988Z,69.54
2019-04-10T07:52:02.444Z,68.16
2019-04-10T07:54:33.057Z,68.83
2019-04-10T07:57:02.200Z,68.58
2019-04-10T07:59:31.286Z,68.54
2019-04-10T08:02:00.142Z,67.99
2019-04-10T08:04:29.071Z,67.71
2019-04-10T08:06:58.736Z,67.73
2019-04-10T08:09:27.540Z,68.18
2019-04-10T08:11:56.695Z,67.96
2019-04-10T08:14:27.424Z,67.44
2019-04-10T08:16:57.316Z,67.29
2019-04-10T08:19:27.583Z,67.55
2019-04-10T08:21:56.919Z,67.20
2019-04-10T08:24:25.941Z,67.03
2019-04-10T08:26:54.837Z,66.91
2019-04-10T08:29:23.917Z,66.29
2019-04-10T08:31:52.823Z,66.28
2019-04-10T08:34:21.671Z,66.10
2019-04-10T08:36:52.678Z,65.99
2019-04-10T08:39:32.401Z,65.64
2019-04-10T08:41:52.144Z,66.27
2019-04-10T08:44:20.770Z,66.15
2019-04-10T08:46:50.334Z,65.77
2019-04-10T08:49:18.950Z,64.32
2019-04-10T08:51:47.932Z,65.47
2019-04-10T08:54:16.776Z,65.01
2019-04-10T08:56:45.409Z,64.56
2019-04-10T08:59:13.956Z,63.92
2019-04-10T09:01:42.587Z,63.11
2019-04-10T09:04:11.192Z,62.43
2019-04-10T09:06:39.850Z,61.49
2019-04-10T09:09:09.653Z,60.65
2019-04-10T09:11:38.795Z,60.94
2019-04-10T09:14:08.571Z,60.40
2019-04-10T09:16:38.485Z,59.57
2019-04-10T09:19:07.286Z,60.36
2019-04-10T09:21:35.936Z,60.66
2019-04-10T09:24:04.760Z,59.75
2019-04-10T09:26:33.579Z,59.87
2019-04-10T09:29:02.547Z,60.39
2019-04-10T09:31:31.606Z,59.91
2019-04-10T09:34:01.990Z,58.85
2019-04-10T09:36:30.645Z,59.58
2019-04-10T09:38:59.269Z,59.28
2019-04-10T09:41:29.807Z,59.50
2019-04-10T09:43:58.549Z,59.21
2019-04-10T09:46:27.160Z,58.49
2019-04-10T09:48:56.208Z,59.34
2019-04-10T09:51:25.598Z,59.16
2019-04-10T09:53:54.428Z,59.04
2019-04-10T09:56:23.092Z,58.80
2019-04-10T09:58:51.948Z,58.91
2019-04-10T10:01:21.949Z,58.84
2019-04-10T10:03:50.912Z,58.29
2019-04-10T10:06:27.341Z,57.99
2019-04-10T10:08:50.237Z,58.97
2019-04-10T10:11:18.884Z,58.97
2019-04-10T10:13:48.235Z,59.26
2019-04-10T10:16:17.183Z,59.01
2019-04-10T10:18:45.895Z,59.01
2019-04-10T10:21:14.539Z,58.31
2019-04-10T10:23:44.384Z,58.43
2019-04-10T10:26:13.430Z,57.60
2019-04-10T10:28:42.939Z,58.46
2019-04-10T10:31:11.697Z,57.87
2019-04-10T10:33:40.182Z,57.76
2019-04-10T10:36:08.724Z,58.07
2019-04-10T10:38:37.332Z,58.33
2019-04-10T10:41:06.740Z,56.82
2019-04-10T10:43:36.291Z,57.96
2019-04-10T10:46:07.223Z,58.21
2019-04-10T10:48:36.029Z,57.92
2019-04-10T10:51:04.681Z,57.80
2019-04-10T10:53:34.265Z,58.23
2019-04-10T10:56:04.223Z,57.96
2019-04-10T10:58:33.128Z,57.64
2019-04-10T11:01:01.736Z,57.20
2019-04-10T11:03:30.368Z,56.37
2019-04-10T11:05:58.978Z,56.70
2019-04-10T11:08:27.582Z,57.43
2019-04-10T11:10:57.566Z,57.41
2019-04-10T11:13:26.647Z,56.44
2019-04-10T11:15:56.242Z,56.78
2019-04-10T11:18:24.982Z,56.89
2019-04-10T11:20:59.321Z,56.48
2019-04-10T11:23:28.346Z,56.78
2019-04-10T11:25:57.684Z,56.76
2019-04-10T11:28:30.186Z,56.44
2019-04-10T11:30:56.991Z,57.11
2019-04-10T11:33:26.337Z,57.49
2019-04-10T11:35:55.265Z,57.41
2019-04-10T11:38:25.890Z,57.26
2019-04-10T11:40:57.396Z,56.81
2019-04-10T11:43:26.087Z,56.38
2019-04-10T11:45:58.513Z,57.09
2019-04-10T11:48:27.937Z,56.53
2019-04-10T11:53:27.212Z,56.33
2019-04-10T11:56:00.312Z,56.48
2019-04-10T11:58:28.972Z,56.32
2019-04-10T12:00:59.610Z,57.03
2019-04-10T12:03:28.318Z,57.09
2019-04-10T12:05:59.557Z,56.40
2019-04-10T12:08:51.719Z,56.14
2019-04-10T12:13:27.722Z,55.71
2019-04-10T12:15:56.784Z,55.29
2019-04-10T12:18:26.640Z,54.65
2019-04-10T12:20:55.688Z,54.77
2019-04-10T12:23:25.109Z,55.16
2019-04-10T12:25:53.991Z,55.01
2019-04-10T12:28:22.729Z,55.13
2019-04-10T12:30:51.349Z,55.98
2019-04-10T12:33:21.208Z,56.53
2019-04-10T12:35:50.158Z,56.28
2019-04-10T12:38:19.330Z,56.47
2019-04-10T12:40:48.183Z,56.46
2019-04-10T12:43:16.827Z,56.70
2019-04-10T12:45:46.530Z,56.54
2019-04-10T12:48:16.605Z,56.05
2019-04-10T12:50:45.390Z,56.13
2019-04-10T12:53:13.984Z,56.63
2019-04-10T12:55:43.743Z,56.78
2019-04-10T12:58:16.199Z,56.71
2019-04-10T13:00:42.994Z,56.20
2019-04-10T13:03:11.573Z,56.60
2019-04-10T13:05:41.155Z,56.56
2019-04-10T13:08:17.815Z,56.71
2019-04-10T13:10:40.499Z,56.62
2019-04-10T13:13:09.523Z,56.61
2019-04-10T13:15:39.341Z,56.99
2019-04-10T13:18:08.963Z,57.45
2019-04-10T13:20:37.893Z,57.42
2019-04-10T13:23:06.682Z,57.37
2019-04-10T13:25:36.642Z,57.16
2019-04-10T13:28:05.532Z,57.31
2019-04-10T13:30:44.766Z,57.19
2019-04-10T13:33:05.343Z,57.51
2019-04-10T13:35:35.440Z,57.56
2019-04-10T13:38:05.172Z,57.42
2019-04-10T13:40:33.710Z,57.63
2019-04-10T13:43:03.272Z,57.64
2019-04-10T13:45:32.163Z,57.81
2019-04-10T13:48:00.905Z,57.63
2019-04-10T13:50:30.691Z,57.71
2019-04-10T13:52:59.681Z,57.13
2019-04-10T13:55:28.507Z,57.40
2019-04-10T13:57:57.218Z,57.22
2019-04-10T14:00:39.545Z,56.80
2019-04-10T14:03:06.964Z,56.51
2019-04-10T14:05:36.948Z,55.82
2019-04-10T14:08:06.834Z,56.60
2019-04-10T14:10:37.038Z,56.52
2019-04-10T14:13:05.725Z,56.50
2019-04-10T14:15:34.323Z,56.34
2019-04-10T14:18:03.317Z,55.14
2019-04-10T14:20:32.173Z,55.62
2019-04-10T14:23:12.291Z,56.58
2019-04-10T14:25:49.774Z,56.54
2019-04-10T14:28:21.869Z,56.34
2019-04-10T14:30:51.603Z,56.02
2019-04-10T14:33:21.285Z,55.98
2019-04-10T14:35:50.277Z,56.12
2019-04-10T14:38:19.032Z,56.23
2019-04-10T14:40:49.185Z,56.80
2019-04-10T14:43:18.739Z,56.31
2019-04-10T14:45:48.039Z,56.02
2019-04-10T14:48:20.176Z,55.41
2019-04-10T14:50:49.232Z,56.37
2019-04-10T14:53:17.786Z,56.07
2019-04-10T14:55:46.399Z,56.18
2019-04-10T14:58:23.962Z,56.40
2019-04-10T15:00:49.515Z,56.82
2019-04-10T15:03:20.256Z,57.03
2019-04-10T15:05:51.435Z,56.85
2019-04-10T15:08:19.690Z,56.85
2019-04-10T15:10:48.283Z,56.74
2019-04-10T15:13:20.979Z,56.84
2019-04-10T15:15:48.279Z,57.30
2019-04-10T15:18:17.039Z,57.28
2019-04-10T15:20:45.726Z,57.22
2019-04-10T15:23:15.403Z,57.58
2019-04-10T15:25:44.270Z,57.49
2019-04-10T15:28:13.965Z,57.42
2019-04-10T15:30:42.669Z,57.68
2019-04-10T15:33:12.146Z,57.42
2019-04-10T15:35:41.766Z,57.69
2019-04-10T15:38:11.722Z,57.39
2019-04-10T15:40:40.495Z,57.44
2019-04-10T15:43:09.055Z,57.87
2019-04-10T15:45:39.962Z,57.79
2019-04-10T15:48:10.485Z,57.88
2019-04-10T15:50:39.521Z,57.88
2019-04-10T15:53:09.638Z,57.28
2019-04-10T15:55:38.473Z,57.75
2019-04-10T15:58:08.632Z,57.85
2019-04-10T16:00:37.420Z,57.72
2019-04-10T16:03:06.053Z,57.92
2019-04-10T16:05:34.650Z,57.99
2019-04-10T16:08:03.302Z,58.40
2019-04-10T16:10:33.947Z,58.06
2019-04-10T16:13:14.458Z,58.10
2019-04-10T16:15:44.923Z,58.10
2019-04-10T16:18:15.697Z,58.10
2019-04-10T16:20:45.877Z,58.34
2019-04-10T16:23:27.497Z,58.21
2019-04-10T16:25:55.463Z,58.19
2019-04-10T16:28:24.029Z,58.07
2019-04-10T16:30:52.921Z,57.84
2019-04-10T16:33:21.577Z,58.08
2019-04-10T16:35:50.218Z,57.90
2019-04-10T16:38:18.822Z,58.08
2019-04-10T16:40:47.989Z,57.91
2019-04-10T16:43:16.958Z,57.85
2019-04-10T16:45:46.790Z,57.90
2019-04-10T16:48:16.907Z,57.44
2019-04-10T16:50:46.035Z,57.92
2019-04-10T16:53:14.653Z,57.33
2019-04-10T16:55:43.293Z,57.50
2019-04-10T16:58:11.978Z,57.75
2019-04-10T17:00:41.701Z,57.76
2019-04-10T17:03:11.574Z,57.60
2019-04-10T17:05:41.741Z,57.57
2019-04-10T17:08:10.410Z,57.17
2019-04-10T17:10:39.260Z,57.51
2019-04-10T17:13:08.923Z,57.54
2019-04-10T17:15:37.967Z,57.80
2019-04-10T17:18:06.771Z,57.36
2019-04-10T17:20:36.197Z,57.86
2019-04-10T17:23:06.570Z,57.84
2019-04-10T17:25:35.976Z,58.14
2019-04-10T17:28:04.791Z,57.76
2019-04-10T17:30:35.895Z,58.27
2019-04-10T17:33:06.752Z,57.74
2019-04-10T17:35:35.950Z,58.15
2019-04-10T17:38:04.916Z,57.59
2019-04-10T17:40:43.344Z,57.62
2019-04-10T17:43:05.324Z,57.46
2019-04-10T17:45:34.364Z,57.85
2019-04-10T17:48:03.437Z,57.73
2019-04-10T17:50:32.242Z,57.28
2019-04-10T17:53:01.218Z,57.62
2019-04-10T17:55:29.765Z,57.90
2019-04-10T17:57:58.458Z,58.10
2019-04-10T18:00:29.310Z,57.48
2019-04-10T18:02:59.130Z,57.79
2019-04-10T18:05:28.794Z,58.00
2019-04-10T18:07:58.676Z,57.59
2019-04-10T18:10:39.575Z,57.59
2019-04-10T18:12:58.918Z,57.93
2019-04-10T18:15:28.300Z,57.63
2019-04-10T18:17:57.658Z,57.62
2019-04-10T18:20:26.308Z,57.85
2019-04-10T18:22:55.391Z,57.78
2019-04-10T18:25:24.106Z,58.03
2019-04-10T18:27:52.745Z,57.93
2019-04-10T18:30:21.683Z,58.00
2019-04-10T18:32:50.399Z,58.06
2019-04-10T18:35:19.009Z,58.41
2019-04-10T18:37:48.052Z,58.47
2019-04-10T18:40:19.014Z,58.34
2019-04-10T18:42:47.807Z,58.34
2019-04-10T18:45:17.521Z,58.56
2019-04-10T18:47:46.490Z,58.66
2019-04-10T18:50:16.141Z,58.89
2019-04-10T18:52:45.609Z,58.76
2019-04-10T18:55:14.349Z,58.89
2019-04-10T18:57:43.211Z,59.36
2019-04-10T19:00:18.640Z,59.08
2019-04-10T19:02:55.261Z,59.25
2019-04-10T19:05:28.306Z,59.15
2019-04-10T19:07:57.171Z,59.12
2019-04-10T19:10:26.411Z,59.32
2019-04-10T19:12:55.038Z,59.44
2019-04-10T19:15:24.421Z,59.61
2019-04-10T19:17:53.465Z,59.49
2019-04-10T19:20:22.864Z,59.57
2019-04-10T19:22:52.785Z,59.65
2019-04-10T19:25:22.655Z,59.76
2019-04-10T19:27:52.636Z,59.58
2019-04-10T19:30:29.382Z,59.78
2019-04-10T19:32:57.932Z,60.11
2019-04-10T19:35:26.743Z,60.18
2019-04-10T19:37:56.667Z,60.17
2019-04-10T19:40:25.563Z,60.40
2019-04-10T19:42:54.436Z,60.35
2019-04-10T19:45:23.736Z,60.66
2019-04-10T19:47:52.826Z,60.60
2019-04-10T19:50:21.599Z,60.68
2019-04-10T19:52:50.777Z,61.19
2019-04-10T19:55:19.876Z,61.53
2019-04-10T19:57:48.450Z,61.66
2019-04-10T20:00:20.000Z,61.61
2019-04-10T20:02:49.061Z,61.51
2019-04-10T20:05:17.689Z,61.78
2019-04-10T20:07:46.234Z,61.67
2019-04-10T20:10:15.184Z,61.75
2019-04-10T20:12:44.684Z,61.79
2019-04-10T20:15:14.113Z,61.72
2019-04-10T20:17:42.882Z,61.64
2019-04-10T20:20:13.083Z,61.61
2019-04-10T20:22:43.924Z,61.42
2019-04-10T20:25:14.371Z,61.40
2019-04-10T20:27:42.982Z,61.49
2019-04-10T20:30:12.072Z,61.58
2019-04-10T20:32:41.875Z,60.99
2019-04-10T20:35:11.932Z,60.92
2019-04-10T20:37:40.488Z,60.80
2019-04-10T20:40:09.691Z,61.04
2019-04-10T20:42:38.355Z,60.99
2019-04-10T20:45:07.519Z,60.48
2019-04-10T20:47:37.214Z,60.51
2019-04-10T20:50:07.884Z,60.29
2019-04-10T20:52:39.415Z,60.67
2019-04-10T20:55:07.335Z,60.30
2019-04-10T20:57:35.909Z,60.86
2019-04-10T21:00:07.974Z,60.78
2019-04-10T21:02:36.583Z,60.78
2019-04-10T21:05:09.817Z,60.64
2019-04-10T21:07:37.562Z,60.56
2019-04-10T21:10:08.637Z,60.41
2019-04-10T21:12:37.433Z,60.68
2019-04-10T21:15:06.952Z,60.63
2019-04-10T21:17:35.475Z,60.88
2019-04-10T21:20:08.058Z,60.78
2019-04-10T21:22:36.643Z,60.91
2019-04-10T21:25:06.577Z,60.63
2019-04-10T21:27:35.553Z,60.75
2019-04-10T21:30:15.769Z,60.78
2019-04-10T21:33:02.336Z,61.11
2019-04-10T21:35:35.075Z,61.06
2019-04-10T21:38:04.807Z,61.57
2019-04-10T21:40:34.749Z,61.78
2019-04-10T21:43:04.085Z,61.45
2019-04-10T21:45:34.998Z,61.49
2019-04-10T21:48:03.844Z,61.86
2019-04-10T21:50:33.324Z,61.62
2019-04-10T21:53:01.897Z,61.99
2019-04-10T21:55:31.129Z,61.89
2019-04-10T21:58:00.024Z,62.04
2019-04-10T22:00:33.348Z,61.80
2019-04-10T22:03:02.863Z,62.14
2019-04-10T22:05:34.573Z,62.10
2019-04-10T22:08:11.017Z,62.04
2019-04-10T22:10:41.939Z,62.68
2019-04-10T22:13:11.352Z,62.62
2019-04-10T22:15:41.851Z,62.62
2019-04-10T22:18:10.454Z,62.73
2019-04-10T22:20:39.618Z,62.93
2019-04-10T22:23:09.704Z,63.04
2019-04-10T22:25:39.537Z,63.23
2019-04-10T22:28:08.379Z,63.29
2019-04-10T22:30:37.173Z,63.30
2019-04-10T22:33:06.224Z,63.47
2019-04-10T22:35:35.679Z,63.25
2019-04-10T22:38:04.852Z,63.53
2019-04-10T22:40:33.483Z,63.35
2019-04-10T22:43:03.274Z,63.45
2019-04-10T22:45:32.870Z,63.48
2019-04-10T22:48:01.552Z,63.40
2019-04-10T22:50:31.062Z,63.44
2019-04-10T22:53:01.226Z,63.78
2019-04-10T22:55:31.716Z,64.11
2019-04-10T22:58:00.424Z,63.81
2019-04-10T23:00:32.740Z,64.10
2019-04-10T23:03:03.134Z,64.17
2019-04-10T23:05:32.476Z,63.84
2019-04-10T23:08:01.307Z,64.39
2019-04-10T23:10:31.610Z,64.19
2019-04-10T23:13:04.853Z,63.89
2019-04-10T23:15:31.427Z,63.78
2019-04-10T23:18:01.296Z,63.91
2019-04-10T23:20:30.162Z,64.29
2019-04-10T23:22:58.934Z,63.87
2019-04-10T23:25:28.633Z,63.94
2019-04-10T23:27:57.513Z,64.08
2019-04-10T23:30:26.733Z,63.83
2019-04-10T23:32:55.534Z,63.81
2019-04-10T23:35:25.341Z,63.60
2019-04-10T23:37:55.111Z,63.65
2019-04-10T23:40:25.016Z,63.56
2019-04-10T23:43:06.827Z,63.49
2019-04-10T23:45:24.233Z,63.55
2019-04-10T23:47:53.003Z,63.54
2019-04-10T23:50:21.846Z,63.39
2019-04-10T23:52:50.413Z,63.46
2019-04-10T23:55:19.055Z,63.75
2019-04-10T23:57:47.602Z,63.56
